Time;durP1;ratioP1;P1;durP2;ratioP2;P2;SDS_P1;SDS_P2;PMS_P1;PMS_P2;Temp;Humidity;BMP_temperature;BMP_pressure;BME280_temperature;BME280_humidity;BME280_pressure;Samples;Min_cycle;Max_cycle;Signal;HPM_P1;HPM_P2
2022/09/25 00:00:41;;;;;;;5.78;4.93;;;11.10;78.20;;;;;;5053786;28;20371;-78
2022/09/25 00:03:07;;;;;;;13.63;5.13;;;11.10;77.70;;;;;;5055362;28;20183;-79
2022/09/25 00:05:35;;;;;;;5.32;4.72;;;11.10;78.20;;;;;;5050865;28;20211;-79
2022/09/25 00:08:02;;;;;;;8.73;5.63;;;11.10;79.00;;;;;;5045342;28;20311;-79
2022/09/25 00:10:28;;;;;;;5.53;4.70;;;11.00;78.90;;;;;;5052660;28;20226;-79
2022/09/25 00:12:54;;;;;;;5.85;5.20;;;10.90;77.20;;;;;;5048707;28;20267;-79
2022/09/25 00:15:20;;;;;;;7.05;4.65;;;10.90;77.60;;;;;;5045946;28;20183;-79
2022/09/25 00:17:47;;;;;;;4.55;4.00;;;10.80;77.00;;;;;;5049687;28;20270;-78
2022/09/25 00:20:15;;;;;;;5.05;4.50;;;10.80;77.10;;;;;;5050915;28;20183;-79
2022/09/25 00:22:41;;;;;;;7.60;4.85;;;10.80;77.70;;;;;;5062360;28;20667;-79
2022/09/25 00:25:14;;;;;;;7.40;5.28;;;10.80;77.90;;;;;;5054052;28;20312;-79
2022/09/25 00:27:41;;;;;;;4.70;4.00;;;10.70;77.00;;;;;;5055493;28;20214;-79
2022/09/25 00:30:08;;;;;;;6.47;4.73;;;10.70;77.10;;;;;;5054146;28;20182;-79
2022/09/25 00:32:34;;;;;;;4.43;4.05;;;10.70;77.20;;;;;;5053835;28;20183;-79
2022/09/25 00:35:00;;;;;;;5.13;4.67;;;10.70;77.20;;;;;;5055498;28;20579;-79
2022/09/25 00:37:29;;;;;;;6.57;5.23;;;10.70;77.30;;;;;;5058287;28;20199;-79
2022/09/25 00:39:55;;;;;;;6.23;4.53;;;10.70;77.50;;;;;;5054378;28;20317;-79
2022/09/25 00:42:22;;;;;;;6.13;4.63;;;10.60;77.20;;;;;;5053588;28;20186;-78
2022/09/25 00:44:57;;;;;;;5.00;4.50;;;10.60;77.30;;;;;;5050868;28;20307;-78
2022/09/25 00:47:44;;;;;;;5.17;4.43;;;10.60;77.50;;;;;;5058979;28;20233;-78
2022/09/25 00:50:27;;;;;;;4.17;3.77;;;10.60;76.80;;;;;;5050656;28;20206;-77
2022/09/25 00:52:57;;;;;;;6.00;4.20;;;10.50;77.30;;;;;;5048435;28;20195;-78
2022/09/25 00:55:23;;;;;;;4.03;3.67;;;10.50;77.40;;;;;;5051415;28;20607;-79
2022/09/25 00:57:53;;;;;;;4.40;4.00;;;10.50;78.90;;;;;;5048373;28;20184;-78
2022/09/25 01:00:18;;;;;;;5.03;4.07;;;10.50;80.10;;;;;;5054300;28;20623;-78
2022/09/25 01:02:52;;;;;;;7.23;4.33;;;10.50;79.10;;;;;;5052185;28;20195;-78
2022/09/25 01:05:23;;;;;;;6.73;4.97;;;10.40;78.30;;;;;;5050006;28;20279;-78
2022/09/25 01:07:51;;;;;;;4.43;4.13;;;10.40;78.20;;;;;;5053995;28;20348;-78
2022/09/25 01:10:19;;;;;;;5.67;4.83;;;10.30;78.70;;;;;;5056644;28;20266;-78
2022/09/25 01:12:47;;;;;;;5.13;4.20;;;10.30;78.70;;;;;;5046792;28;20207;-78
2022/09/25 01:15:16;;;;;;;4.43;4.03;;;10.30;78.90;;;;;;5045752;28;20188;-78
2022/09/25 01:17:53;;;;;;;4.40;4.00;;;10.20;78.40;;;;;;5052295;28;20194;-78
2022/09/25 01:20:38;;;;;;;5.00;3.93;;;10.20;78.80;;;;;;5050782;28;20576;-78
2022/09/25 01:23:28;;;;;;;4.40;4.10;;;10.20;78.70;;;;;;5051167;28;20186;-78
2022/09/25 01:26:13;;;;;;;4.27;3.90;;;10.20;79.20;;;;;;5050767;28;20732;-78
2022/09/25 01:28:50;;;;;;;3.77;3.57;;;10.10;79.30;;;;;;5053162;28;20298;-78
2022/09/25 01:32:14;;;;;;;3.97;3.60;;;10.10;78.50;;;;;;5051985;28;20661;-78
2022/09/25 01:34:47;;;;;;;4.30;3.90;;;10.00;78.60;;;;;;4983331;28;20194;-78
2022/09/25 01:37:36;;;;;;;7.83;4.13;;;10.00;78.40;;;;;;4982729;28;20201;-78
2022/09/25 01:40:27;;;;;;;3.73;3.30;;;10.00;77.70;;;;;;4982248;28;20194;-78
2022/09/25 01:43:19;;;;;;;4.30;4.00;;;9.90;77.90;;;;;;4983087;28;20185;-78
2022/09/25 01:45:56;;;;;;;4.40;4.00;;;9.90;78.40;;;;;;4982612;28;20247;-78
2022/09/25 01:48:28;;;;;;;5.57;5.17;;;9.80;78.50;;;;;;4982958;28;20876;-78
2022/09/25 01:51:02;;;;;;;4.17;3.70;;;9.80;78.50;;;;;;4972668;28;20190;-77
2022/09/25 01:53:38;;;;;;;5.80;4.90;;;9.80;78.10;;;;;;4996878;28;20197;-79
2022/09/25 01:56:12;;;;;;;5.77;4.63;;;9.80;79.00;;;;;;4983644;28;20243;-78
2022/09/25 01:58:47;;;;;;;5.27;4.30;;;9.70;79.50;;;;;;4983307;28;20204;-79
2022/09/25 02:01:28;;;;;;;5.13;4.70;;;9.70;79.10;;;;;;4981775;28;20270;-78
2022/09/25 02:04:17;;;;;;;5.37;4.70;;;9.70;79.20;;;;;;4981947;28;20221;-78
2022/09/25 02:06:46;;;;;;;4.80;4.00;;;9.70;78.90;;;;;;4982344;28;20210;-78
2022/09/25 02:09:23;;;;;;;8.13;4.27;;;9.70;79.80;;;;;;4984381;28;20181;-79
2022/09/25 02:11:55;;;;;;;5.77;4.47;;;9.60;79.10;;;;;;5048163;28;20195;-78
2022/09/25 02:14:38;;;;;;;4.87;4.20;;;9.60;79.20;;;;;;5051811;28;20171;-79
2022/09/25 02:17:09;;;;;;;5.57;4.07;;;9.60;79.70;;;;;;5047040;28;20222;-78
2022/09/25 02:22:34;;;;;;;6.63;4.70;;;9.50;80.10;;;;;;5056863;28;20194;-78
2022/09/25 02:25:16;;;;;;;4.97;3.90;;;9.50;79.80;;;;;;5057434;28;20217;-79
2022/09/25 02:27:42;;;;;;;4.17;3.63;;;9.50;80.20;;;;;;5056664;28;20215;-78
2022/09/25 02:30:10;;;;;;;4.47;4.07;;;9.50;80.30;;;;;;5059631;28;20183;-78
2022/09/25 02:32:36;;;;;;;4.53;3.83;;;9.40;79.80;;;;;;5054159;28;20379;-78
2022/09/25 02:35:03;;;;;;;4.63;4.23;;;9.40;80.30;;;;;;5040086;28;20187;-78
2022/09/25 02:37:29;;;;;;;4.87;4.37;;;9.40;80.50;;;;;;5057757;28;20179;-79
2022/09/25 02:39:59;;;;;;;5.13;3.80;;;9.40;80.90;;;;;;5054883;28;20228;-79
2022/09/25 02:42:31;;;;;;;5.13;4.00;;;9.40;80.50;;;;;;5049282;28;20328;-78
2022/09/25 02:45:15;;;;;;;5.80;3.80;;;9.40;80.80;;;;;;5060498;28;20194;-78
2022/09/25 02:48:09;;;;;;;4.00;3.70;;;9.40;81.60;;;;;;5058104;28;20371;-78
2022/09/25 02:50:55;;;;;;;5.33;3.93;;;9.40;80.80;;;;;;5053437;28;20196;-78
2022/09/25 02:53:32;;;;;;;5.33;4.20;;;9.30;80.60;;;;;;4955785;28;20710;-79
2022/09/25 02:56:27;;;;;;;4.27;3.83;;;9.30;81.50;;;;;;4957969;28;20284;-78
2022/09/25 02:58:57;;;;;;;3.40;3.10;;;9.30;81.00;;;;;;4959831;28;20194;-78
2022/09/25 03:01:25;;;;;;;3.30;3.10;;;9.30;80.40;;;;;;4968338;28;20652;-78
2022/09/25 03:03:55;;;;;;;4.40;4.00;;;9.30;80.20;;;;;;4968916;28;20707;-78
2022/09/25 03:06:24;;;;;;;4.47;4.07;;;9.30;80.30;;;;;;4969224;28;20264;-78
2022/09/25 03:08:55;;;;;;;4.17;3.87;;;9.30;80.60;;;;;;4972400;28;20194;-79
2022/09/25 03:11:23;;;;;;;5.57;4.13;;;9.30;81.10;;;;;;4967939;28;20202;-78
2022/09/25 03:13:56;;;;;;;4.80;4.27;;;9.40;83.00;;;;;;4965923;28;20190;-78
2022/09/25 03:16:50;;;;;;;5.17;3.97;;;9.30;81.40;;;;;;4967183;28;20744;-78
2022/09/25 03:19:18;;;;;;;4.33;3.93;;;9.30;80.50;;;;;;4966689;28;20691;-78
2022/09/25 03:21:45;;;;;;;5.10;4.03;;;9.30;80.70;;;;;;4971951;28;20244;-78
2022/09/25 03:24:10;;;;;;;4.43;4.00;;;9.30;81.50;;;;;;4974912;28;20671;-78
2022/09/25 03:26:36;;;;;;;4.33;3.90;;;9.30;81.30;;;;;;4965775;28;20206;-79
2022/09/25 03:29:02;;;;;;;6.17;4.00;;;9.30;81.30;;;;;;4967949;28;20198;-78
2022/09/25 03:31:29;;;;;;;4.23;3.93;;;9.30;82.00;;;;;;5042779;28;20324;-78
2022/09/25 03:33:55;;;;;;;5.87;3.27;;;9.30;81.80;;;;;;5049016;28;20180;-79
2022/09/25 03:36:23;;;;;;;3.90;3.50;;;9.30;81.90;;;;;;5049328;28;20187;-78
2022/09/25 03:38:52;;;;;;;3.40;3.10;;;9.30;82.70;;;;;;5051864;28;20234;-79
2022/09/25 03:41:21;;;;;;;4.20;3.13;;;9.30;82.10;;;;;;5050535;28;20341;-78
2022/09/25 03:43:50;;;;;;;3.47;3.17;;;9.30;81.40;;;;;;5044465;28;20262;-78
2022/09/25 03:46:21;;;;;;;3.37;3.07;;;9.20;81.60;;;;;;5053721;28;20199;-78
2022/09/25 03:48:47;;;;;;;4.40;3.23;;;9.10;81.50;;;;;;5049250;28;20184;-78
2022/09/25 03:51:13;;;;;;;3.47;3.20;;;9.10;81.00;;;;;;5049570;28;20183;-78
2022/09/25 03:53:38;;;;;;;4.20;3.80;;;9.10;81.20;;;;;;5049655;28;20175;-79
2022/09/25 03:56:11;;;;;;;4.23;2.87;;;9.00;81.60;;;;;;5050445;28;20175;-78
2022/09/25 03:58:37;;;;;;;3.50;3.27;;;9.00;81.50;;;;;;5049503;28;20236;-78
2022/09/25 04:01:04;;;;;;;3.47;3.27;;;9.00;81.40;;;;;;5048627;28;20176;-78
2022/09/25 04:03:31;;;;;;;5.63;3.10;;;9.00;81.90;;;;;;5052914;28;20179;-78
2022/09/25 04:06:02;;;;;;;4.63;3.70;;;9.00;81.80;;;;;;5046625;28;20179;-78
2022/09/25 04:08:28;;;;;;;3.10;2.90;;;9.00;81.80;;;;;;5050076;28;20230;-79
2022/09/25 04:10:55;;;;;;;4.07;3.50;;;9.00;82.30;;;;;;5049555;28;20665;-78
2022/09/25 04:13:25;;;;;;;4.30;3.37;;;9.00;82.10;;;;;;5051309;28;20178;-78
2022/09/25 04:15:51;;;;;;;3.50;3.00;;;9.00;82.10;;;;;;5050435;28;20180;-78
2022/09/25 04:18:17;;;;;;;6.00;3.60;;;8.90;82.30;;;;;;5056554;28;20241;-78
2022/09/25 04:20:42;;;;;;;3.93;3.63;;;8.90;82.10;;;;;;5055694;28;20236;-79
2022/09/25 04:23:08;;;;;;;4.20;3.80;;;8.90;82.10;;;;;;5048712;28;20191;-78
2022/09/25 04:25:34;;;;;;;2.93;2.73;;;8.90;83.10;;;;;;5048902;28;20183;-78
2022/09/25 04:28:00;;;;;;;3.77;3.47;;;8.90;83.20;;;;;;5050871;28;20750;-79
2022/09/25 04:30:27;;;;;;;3.93;2.73;;;8.90;82.40;;;;;;5048751;28;20183;-78
2022/09/25 04:35:39;;;;;;;3.53;3.33;;;8.80;82.50;;;;;;5051266;28;20190;-78
2022/09/25 04:38:05;;;;;;;3.20;2.90;;;8.80;82.70;;;;;;5048000;28;20184;-79
2022/09/25 04:40:31;;;;;;;3.30;3.13;;;8.80;83.00;;;;;;5052192;28;20659;-78
2022/09/25 04:42:58;;;;;;;3.10;2.97;;;8.80;82.90;;;;;;5053076;28;20653;-78
2022/09/25 04:45:25;;;;;;;4.33;3.93;;;8.80;82.70;;;;;;5045383;28;20657;-79
2022/09/25 04:47:52;;;;;;;3.60;3.17;;;8.80;82.80;;;;;;5051556;28;20207;-79
2022/09/25 04:50:19;;;;;;;3.50;3.20;;;8.80;83.10;;;;;;5054104;28;20191;-79
2022/09/25 04:52:45;;;;;;;5.03;3.50;;;8.70;83.10;;;;;;5049101;28;21052;-78
2022/09/25 04:55:11;;;;;;;4.37;3.97;;;8.70;83.10;;;;;;5047317;28;20245;-79
2022/09/25 04:57:38;;;;;;;3.63;3.33;;;8.70;83.10;;;;;;5047868;28;20270;-78
2022/09/25 05:00:05;;;;;;;3.33;3.10;;;8.70;83.10;;;;;;5049404;28;20187;-78
2022/09/25 05:02:30;;;;;;;4.00;3.70;;;8.80;83.70;;;;;;5051442;28;20202;-78
2022/09/25 05:04:56;;;;;;;4.33;3.50;;;8.70;83.70;;;;;;5053262;28;20175;-79
2022/09/25 05:07:22;;;;;;;5.10;4.30;;;8.70;84.00;;;;;;5051540;28;20239;-78
2022/09/25 05:09:47;;;;;;;6.43;4.27;;;8.70;84.90;;;;;;5050349;28;20183;-79
2022/09/25 05:12:13;;;;;;;4.30;3.93;;;8.80;84.70;;;;;;5050390;28;20545;-78
2022/09/25 05:14:41;;;;;;;4.57;4.13;;;8.70;83.90;;;;;;5055148;28;20191;-78
2022/09/25 05:17:07;;;;;;;6.00;3.63;;;8.70;83.10;;;;;;5053953;28;20223;-78
2022/09/25 05:19:34;;;;;;;4.80;3.77;;;8.80;82.90;;;;;;5047598;28;20199;-78
2022/09/25 05:22:00;;;;;;;3.60;3.37;;;8.80;82.70;;;;;;5053930;28;20218;-79
2022/09/25 05:24:26;;;;;;;3.53;3.33;;;8.80;82.90;;;;;;5059687;28;20331;-78
2022/09/25 05:26:51;;;;;;;4.20;3.90;;;8.90;82.50;;;;;;5052872;28;20204;-78
2022/09/25 05:29:17;;;;;;;3.33;3.20;;;8.90;83.40;;;;;;5055177;28;20610;-79
2022/09/25 05:31:45;;;;;;;3.63;3.33;;;9.00;83.60;;;;;;5052846;28;20198;-78
2022/09/25 05:34:12;;;;;;;4.33;3.90;;;9.10;83.10;;;;;;5051061;28;20184;-79
2022/09/25 05:36:38;;;;;;;4.43;3.80;;;9.10;83.50;;;;;;5051465;28;20637;-79
2022/09/25 05:39:03;;;;;;;5.00;3.63;;;9.20;84.30;;;;;;5053835;28;20194;-79
2022/09/25 05:41:30;;;;;;;4.07;3.67;;;9.30;83.60;;;;;;5049880;28;20187;-79
2022/09/25 05:43:56;;;;;;;3.10;2.90;;;9.30;83.40;;;;;;5051380;28;20178;-78
2022/09/25 05:46:22;;;;;;;5.73;3.37;;;9.40;82.60;;;;;;5056026;28;20199;-79
2022/09/25 05:48:48;;;;;;;11.60;3.07;;;9.40;82.20;;;;;;5052968;28;20226;-78
2022/09/25 05:51:14;;;;;;;4.10;3.70;;;9.50;82.60;;;;;;5049506;28;20187;-79
2022/09/25 05:53:40;;;;;;;4.20;3.10;;;9.60;82.90;;;;;;5049174;28;20832;-79
2022/09/25 05:56:06;;;;;;;4.47;3.70;;;9.70;83.00;;;;;;5056608;28;20198;-79
2022/09/25 05:58:33;;;;;;;3.20;3.00;;;9.80;82.10;;;;;;5050253;28;20302;-79
2022/09/25 06:01:03;;;;;;;3.43;3.13;;;9.90;81.70;;;;;;5054337;28;20194;-78
2022/09/25 06:03:30;;;;;;;4.13;3.20;;;10.00;81.60;;;;;;5054534;28;20194;-79
2022/09/25 06:05:57;;;;;;;2.90;2.70;;;10.10;81.90;;;;;;5054633;28;20203;-78
2022/09/25 06:08:24;;;;;;;2.57;2.43;;;10.20;81.70;;;;;;5048610;28;20303;-78
2022/09/25 06:10:55;;;;;;;3.10;2.83;;;10.30;81.50;;;;;;5051389;28;20187;-78
2022/09/25 06:13:24;;;;;;;2.20;2.10;;;10.50;80.60;;;;;;5053197;28;20203;-78
2022/09/25 06:15:51;;;;;;;5.27;3.03;;;10.60;81.30;;;;;;5051736;28;20195;-78
2022/09/25 06:18:21;;;;;;;2.83;2.63;;;10.70;81.50;;;;;;5045187;28;20690;-79
2022/09/25 06:20:47;;;;;;;3.57;3.27;;;10.80;81.60;;;;;;5049808;28;20794;-77
2022/09/25 06:23:14;;;;;;;2.85;2.65;;;10.90;81.70;;;;;;5052587;28;20187;-77
2022/09/25 06:25:40;;;;;;;2.90;2.70;;;11.00;81.30;;;;;;5052854;28;20184;-77
2022/09/25 06:28:06;;;;;;;3.00;2.85;;;11.10;81.00;;;;;;5045302;28;20606;-77
2022/09/25 06:30:34;;;;;;;3.22;3.00;;;11.20;81.40;;;;;;5051943;28;20275;-75
2022/09/25 06:33:06;;;;;;;2.38;2.28;;;11.30;80.90;;;;;;5053545;28;20186;-75
2022/09/25 06:35:33;;;;;;;3.28;2.50;;;11.40;80.70;;;;;;5046237;28;20183;-75
2022/09/25 06:38:00;;;;;;;2.63;2.42;;;11.50;80.60;;;;;;5050581;28;20191;-75
2022/09/25 06:40:28;;;;;;;2.40;2.30;;;11.70;80.70;;;;;;5045607;28;20586;-77
2022/09/25 06:42:58;;;;;;;3.17;2.88;;;11.80;80.70;;;;;;5050883;28;20176;-77
2022/09/25 06:45:25;;;;;;;3.25;2.95;;;11.90;80.30;;;;;;5059773;28;21128;-79
2022/09/25 06:47:56;;;;;;;3.22;3.03;;;12.10;80.30;;;;;;5047660;28;20594;-79
2022/09/25 06:50:25;;;;;;;3.17;2.88;;;12.20;80.30;;;;;;5047654;28;21127;-77
2022/09/25 06:52:51;;;;;;;3.92;3.17;;;12.30;79.70;;;;;;5078755;28;20609;-78
2022/09/25 06:55:16;;;;;;;2.75;2.60;;;12.40;79.70;;;;;;5054368;28;20187;-78
2022/09/25 06:57:45;;;;;;;3.80;3.60;;;12.50;79.60;;;;;;5049498;28;20271;-76
2022/09/25 07:00:11;;;;;;;3.20;2.90;;;12.70;79.40;;;;;;5045569;28;20210;-78
2022/09/25 07:05:21;;;;;;;3.28;3.08;;;12.90;79.00;;;;;;5055568;28;20615;-77
2022/09/25 07:07:47;;;;;;;3.33;3.05;;;13.10;79.10;;;;;;5052389;28;20207;-79
2022/09/25 07:10:14;;;;;;;4.13;3.67;;;13.20;78.90;;;;;;5052138;28;20172;-77
2022/09/25 07:12:41;;;;;;;3.90;3.63;;;13.30;78.30;;;;;;5045864;28;20175;-78
2022/09/25 07:15:07;;;;;;;3.88;3.58;;;13.50;78.10;;;;;;5053530;28;20175;-79
2022/09/25 07:17:33;;;;;;;3.67;3.35;;;13.60;77.90;;;;;;5053487;28;20699;-79
2022/09/25 07:19:59;;;;;;;4.15;3.85;;;13.70;77.50;;;;;;5052648;28;20179;-77
2022/09/25 07:22:25;;;;;;;4.22;3.92;;;13.80;76.70;;;;;;5048895;28;20184;-77
2022/09/25 07:24:51;;;;;;;6.07;4.10;;;13.90;75.00;;;;;;5051004;28;20187;-77
2022/09/25 07:27:16;;;;;;;3.30;3.10;;;13.80;73.90;;;;;;5041154;28;20215;-77
2022/09/25 07:29:42;;;;;;;3.88;3.50;;;13.80;75.60;;;;;;5049013;28;20172;-77
2022/09/25 07:32:09;;;;;;;3.45;3.17;;;13.90;74.50;;;;;;5046022;28;20219;-77
2022/09/25 07:34:36;;;;;;;3.55;3.22;;;13.90;75.40;;;;;;5041457;28;20180;-77
2022/09/25 07:37:02;;;;;;;4.30;3.22;;;14.00;74.50;;;;;;5045708;28;20179;-78
2022/09/25 07:39:28;;;;;;;3.45;3.20;;;14.00;74.70;;;;;;5051873;28;20182;-78
2022/09/25 07:41:54;;;;;;;3.80;3.60;;;14.10;75.10;;;;;;5047204;28;20180;-79
2022/09/25 07:44:20;;;;;;;3.42;3.22;;;14.20;75.50;;;;;;5051594;28;20187;-76
2022/09/25 07:46:46;;;;;;;4.57;4.15;;;14.30;75.10;;;;;;5050872;28;20658;-78
2022/09/25 07:49:12;;;;;;;3.58;3.28;;;14.20;71.90;;;;;;5045027;28;20241;-79
2022/09/25 07:51:38;;;;;;;4.78;4.05;;;14.30;72.10;;;;;;5046594;28;20212;-79
2022/09/25 07:54:04;;;;;;;3.63;3.33;;;14.40;73.10;;;;;;5051158;28;20179;-79
2022/09/25 07:56:29;;;;;;;5.10;3.70;;;14.50;72.80;;;;;;5053768;28;20736;-78
2022/09/25 07:58:55;;;;;;;3.63;3.33;;;14.80;72.70;;;;;;5045287;28;20279;-79
2022/09/25 08:01:21;;;;;;;3.83;3.55;;;15.00;71.80;;;;;;5045678;28;20642;-77
2022/09/25 08:03:48;;;;;;;3.55;3.33;;;15.40;70.80;;;;;;5051363;28;20188;-79
2022/09/25 08:06:14;;;;;;;3.25;3.05;;;15.90;70.70;;;;;;5045352;28;20262;-77
2022/09/25 08:08:41;;;;;;;3.30;3.10;;;16.40;68.30;;;;;;5049411;28;20213;-77
2022/09/25 08:11:10;;;;;;;3.72;3.42;;;17.00;67.70;;;;;;5049426;28;20262;-78
2022/09/25 08:13:37;;;;;;;3.08;2.88;;;17.50;66.70;;;;;;5047626;28;20716;-78
2022/09/25 08:16:12;;;;;;;3.03;2.83;;;18.20;66.80;;;;;;5048743;28;20182;-78
2022/09/25 08:18:40;;;;;;;3.38;3.17;;;19.00;64.00;;;;;;5045102;28;20179;-79
2022/09/25 08:21:07;;;;;;;3.72;3.53;;;19.70;63.30;;;;;;5047508;28;20180;-78
2022/09/25 08:23:33;;;;;;;3.80;3.60;;;20.30;61.90;;;;;;5046675;28;20187;-78
2022/09/25 08:26:00;;;;;;;3.53;3.28;;;20.90;60.50;;;;;;5046664;28;20199;-74
2022/09/25 08:28:26;;;;;;;2.92;2.83;;;21.40;60.10;;;;;;5043343;28;20223;-77
2022/09/25 08:30:52;;;;;;;3.83;3.13;;;22.00;60.70;;;;;;5050837;28;20179;-78
2022/09/25 08:33:18;;;;;;;2.97;2.88;;;22.70;59.80;;;;;;5044572;28;20332;-77
2022/09/25 08:35:55;;;;;;;3.35;3.15;;;23.50;58.50;;;;;;5046100;28;20294;-77
2022/09/25 08:38:21;;;;;;;4.15;3.90;;;24.30;58.20;;;;;;5045800;28;20192;-77
2022/09/25 08:40:55;;;;;;;3.58;3.40;;;25.00;56.00;;;;;;5047639;28;20218;-79
2022/09/25 08:43:24;;;;;;;3.67;3.47;;;25.70;55.10;;;;;;5038981;28;20764;-78
2022/09/25 08:49:04;;;;;;;3.35;3.17;;;27.10;54.00;;;;;;5046214;28;20280;-78
2022/09/25 08:51:37;;;;;;;3.67;3.47;;;27.60;51.10;;;;;;5042020;28;20218;-79
2022/09/25 08:54:03;;;;;;;3.60;3.30;;;28.10;51.60;;;;;;5046493;28;20179;-76
2022/09/25 08:56:31;;;;;;;3.13;2.92;;;28.50;49.40;;;;;;5051300;28;20693;-76
2022/09/25 08:59:22;;;;;;;3.20;3.03;;;28.80;50.20;;;;;;5048087;28;20179;-77
2022/09/25 09:02:13;;;;;;;3.35;2.72;;;29.30;51.80;;;;;;5049922;28;20191;-78
2022/09/25 09:04:50;;;;;;;2.80;2.60;;;30.00;48.40;;;;;;5043114;28;20214;-79
2022/09/25 09:08:05;;;;;;;2.88;2.78;;;30.70;47.40;;;;;;5042215;28;20317;-74
2022/09/25 09:10:42;;;;;;;2.88;2.78;;;31.40;46.40;;;;;;4961340;28;20191;-75
2022/09/25 09:13:29;;;;;;;3.00;2.80;;;32.10;46.40;;;;;;4965045;28;20220;-74
2022/09/25 09:16:15;;;;;;;3.08;2.97;;;32.80;45.30;;;;;;4965397;28;20217;-78
2022/09/25 09:18:42;;;;;;;3.00;2.90;;;33.50;45.30;;;;;;4949757;28;20284;-76
2022/09/25 09:21:31;;;;;;;3.22;3.03;;;34.10;45.40;;;;;;4962308;28;20362;-75
2022/09/25 09:24:22;;;;;;;2.67;2.33;;;34.60;43.60;;;;;;4965296;28;20643;-73
2022/09/25 09:27:03;;;;;;;2.92;2.72;;;35.00;44.10;;;;;;4961023;28;20298;-75
2022/09/25 09:29:50;;;;;;;2.45;2.35;;;35.40;45.00;;;;;;4963243;28;20221;-74
2022/09/25 09:32:31;;;;;;;2.30;2.20;;;35.90;41.60;;;;;;4962762;28;20253;-74
2022/09/25 09:35:26;;;;;;;2.05;2.03;;;36.00;44.30;;;;;;4961680;28;20271;-75
2022/09/25 09:38:14;;;;;;;2.55;2.45;;;35.70;41.00;;;;;;4907020;29;20206;-77
2022/09/25 09:41:07;;;;;;;2.28;2.17;;;35.10;40.30;;;;;;4909028;29;20946;-77
2022/09/25 09:43:56;;;;;;;2.03;2.00;;;34.80;44.40;;;;;;4907256;29;20200;-77
2022/09/25 09:46:46;;;;;;;2.20;2.10;;;34.70;46.00;;;;;;4950540;28;20705;-77
2022/09/25 09:49:17;;;;;;;1.80;1.80;;;35.00;45.00;;;;;;5008628;28;20207;-77
2022/09/25 09:51:59;;;;;;;2.10;2.00;;;35.40;44.90;;;;;;5003953;28;20711;-76
2022/09/25 09:54:41;;;;;;;4.25;2.33;;;36.00;44.20;;;;;;5002815;28;20196;-75
2022/09/25 09:57:32;;;;;;;1.98;1.98;;;36.30;43.50;;;;;;4988491;28;20184;-75
2022/09/25 10:00:14;;;;;;;2.47;2.47;;;36.20;41.30;;;;;;5004153;28;20204;-75
2022/09/25 10:03:29;;;;;;;2.08;2.08;;;36.00;42.80;;;;;;5007322;28;20276;-74
2022/09/25 10:05:58;;;;;;;2.38;2.28;;;36.20;42.30;;;;;;5025824;28;20202;-75
2022/09/25 10:08:24;;;;;;;1.67;1.63;;;36.40;41.20;;;;;;5022518;28;20224;-74
2022/09/25 10:10:55;;;;;;;1.88;1.88;;;36.70;43.40;;;;;;5023237;28;20265;-75
2022/09/25 10:13:33;;;;;;;2.35;1.98;;;37.00;43.30;;;;;;5026737;28;20194;-77
2022/09/25 10:16:02;;;;;;;2.45;2.35;;;37.20;43.20;;;;;;5044733;28;20205;-76
2022/09/25 10:18:45;;;;;;;2.50;1.83;;;37.30;42.00;;;;;;5048130;28;20187;-76
2022/09/25 10:21:17;;;;;;;1.70;1.70;;;37.20;41.80;;;;;;5049656;28;20190;-76
2022/09/25 10:23:53;;;;;;;1.88;1.88;;;36.90;42.50;;;;;;5042944;28;20195;-75
2022/09/25 10:26:30;;;;;;;2.35;2.25;;;36.80;42.60;;;;;;5047016;28;20191;-76
2022/09/25 10:29:01;;;;;;;2.13;2.03;;;36.70;42.40;;;;;;5037364;28;20249;-78
2022/09/25 10:31:34;;;;;;;1.52;1.50;;;36.70;41.10;;;;;;5044162;28;20282;-78
2022/09/25 10:34:04;;;;;;;1.92;1.92;;;36.60;42.20;;;;;;5042934;28;20187;-78
2022/09/25 10:36:33;;;;;;;2.05;1.95;;;36.80;42.50;;;;;;5040811;28;20225;-78
2022/09/25 10:39:01;;;;;;;1.60;1.60;;;37.00;41.50;;;;;;5043592;28;20274;-79
2022/09/25 10:41:27;;;;;;;1.73;1.70;;;37.00;41.00;;;;;;5048882;28;20193;-79
2022/09/25 10:43:53;;;;;;;1.77;1.77;;;37.00;40.20;;;;;;5046835;28;20179;-79
2022/09/25 10:52:09;;;;;;;1.92;1.88;;;37.70;41.20;;;;;;5056564;28;20189;-80
2022/09/25 10:54:36;;;;;;;1.75;1.75;;;38.10;41.50;;;;;;5057440;28;20186;-79
2022/09/25 10:57:16;;;;;;;3.85;1.65;;;38.30;38.20;;;;;;5058408;28;20259;-80
2022/09/25 10:59:48;;;;;;;2.60;1.65;;;38.30;36.90;;;;;;5052979;28;20192;-80
2022/09/25 11:02:30;;;;;;;1.73;1.60;;;38.40;41.10;;;;;;5050729;28;20194;-80
2022/09/25 11:04:56;;;;;;;2.03;1.92;;;38.50;38.10;;;;;;5052695;28;20190;-80
2022/09/25 11:07:26;;;;;;;1.75;1.75;;;38.70;40.00;;;;;;5048861;28;20679;-80
2022/09/25 11:09:51;;;;;;;1.80;1.77;;;38.80;38.50;;;;;;5050383;28;20178;-80
2022/09/25 11:12:26;;;;;;;1.55;1.55;;;38.90;37.80;;;;;;5048990;28;20255;-80
2022/09/25 11:15:05;;;;;;;1.60;1.60;;;38.80;39.60;;;;;;5049479;28;20566;-79
2022/09/25 11:17:41;;;;;;;1.48;1.38;;;38.50;38.40;;;;;;5049799;28;20186;-79
2022/09/25 11:20:16;;;;;;;1.52;1.52;;;38.40;38.00;;;;;;5054223;28;20186;-79
2022/09/25 11:23:27;;;;;;;1.70;1.60;;;38.00;36.10;;;;;;5050039;28;20182;-79
2022/09/25 11:26:13;;;;;;;1.65;1.58;;;37.90;37.40;;;;;;5026548;28;20191;-79
2022/09/25 11:29:02;;;;;;;1.35;1.35;;;38.10;39.60;;;;;;5023627;28;20346;-80
2022/09/25 11:31:42;;;;;;;1.95;1.40;;;38.10;38.10;;;;;;5024401;28;20232;-79
2022/09/25 11:34:41;;;;;;;1.30;1.30;;;38.00;37.20;;;;;;5025090;28;20191;-78
2022/09/25 11:37:28;;;;;;;1.45;1.45;;;38.00;36.00;;;;;;4944811;28;20190;-78
2022/09/25 11:43:11;;;;;;;1.40;1.30;;;37.40;36.50;;;;;;4923472;29;20193;-79
2022/09/25 11:45:46;;;;;;;1.52;1.42;;;36.80;37.20;;;;;;4928244;29;20256;-79
2022/09/25 11:48:11;;;;;;;1.48;1.48;;;36.70;39.10;;;;;;4935161;29;20226;-80
2022/09/25 11:51:08;;;;;;;1.42;1.42;;;36.70;38.60;;;;;;4940213;29;20249;-80
2022/09/25 11:54:00;;;;;;;3.50;1.25;;;36.90;37.10;;;;;;4939045;29;20183;-79
2022/09/25 11:56:44;;;;;;;1.20;1.20;;;37.20;36.70;;;;;;4874409;29;20201;-79
2022/09/25 11:59:31;;;;;;;1.13;1.13;;;37.40;37.70;;;;;;4864982;29;20580;-80
2022/09/25 12:02:09;;;;;;;4.43;1.38;;;37.30;36.60;;;;;;4871440;29;20861;-80
2022/09/25 12:04:51;;;;;;;1.05;1.05;;;37.20;36.50;;;;;;4884975;29;20191;-76
2022/09/25 12:07:39;;;;;;;1.33;1.33;;;37.20;37.40;;;;;;4881526;29;20303;-77
2022/09/25 12:10:26;;;;;;;1.50;1.50;;;37.20;37.50;;;;;;4866389;29;20192;-76
2022/09/25 12:13:32;;;;;;;1.33;1.33;;;37.30;36.90;;;;;;4913216;29;20214;-77
2022/09/25 12:16:27;;;;;;;1.63;1.50;;;37.30;36.90;;;;;;4941432;28;20190;-76
2022/09/25 12:19:02;;;;;;;1.50;1.50;;;37.60;38.00;;;;;;4903636;29;20233;-77
2022/09/25 12:22:00;;;;;;;1.38;1.38;;;37.80;36.70;;;;;;4913548;29;20191;-80
2022/09/25 12:24:47;;;;;;;1.25;1.25;;;37.90;35.90;;;;;;4896241;29;20207;-79
2022/09/25 12:27:39;;;;;;;1.30;1.08;;;37.90;35.70;;;;;;4920707;29;22094;-78
2022/09/25 12:30:26;;;;;;;1.30;1.30;;;37.50;35.50;;;;;;4923992;29;20494;-79
2022/09/25 12:32:57;;;;;;;6.55;1.90;;;37.50;36.20;;;;;;4936827;28;20205;-83
2022/09/25 12:35:31;;;;;;;1.60;1.60;;;37.60;35.70;;;;;;4953457;28;20194;-79
2022/09/25 12:38:55;;;;;;;0.98;0.98;;;37.60;35.90;;;;;;4942406;28;20621;-78
2022/09/25 12:41:42;;;;;;;1.52;1.42;;;37.70;35.30;;;;;;4856572;29;20240;-78
2022/09/25 12:44:27;;;;;;;1.20;1.20;;;37.60;36.80;;;;;;4860281;29;20216;-79
2022/09/25 12:47:00;;;;;;;1.48;1.38;;;37.30;39.80;;;;;;4852153;29;20201;-81
2022/09/25 12:49:43;;;;;;;1.30;1.30;;;37.10;36.90;;;;;;4852729;29;20202;-81
2022/09/25 12:52:35;;;;;;;1.40;1.30;;;36.90;38.10;;;;;;4847512;29;21066;-79
2022/09/25 12:55:14;;;;;;;1.35;1.33;;;36.90;37.50;;;;;;4855811;29;20623;-76
2022/09/25 12:58:06;;;;;;;1.08;1.08;;;36.90;35.80;;;;;;4901536;29;20216;-77
2022/09/25 13:00:34;;;;;;;1.20;1.20;;;36.50;38.20;;;;;;4900714;29;20211;-77
2022/09/25 13:03:22;;;;;;;0.93;0.93;;;36.10;38.50;;;;;;4901765;29;20330;-77
2022/09/25 13:06:21;;;;;;;1.05;1.05;;;35.50;36.90;;;;;;4904186;29;20211;-79
2022/09/25 13:09:15;;;;;;;2.53;1.10;;;35.10;38.50;;;;;;4887483;29;20226;-79
2022/09/25 13:11:50;;;;;;;1.20;0.85;;;35.30;37.50;;;;;;4904952;29;20232;-78
2022/09/25 13:14:31;;;;;;;1.30;1.30;;;35.00;39.30;;;;;;4899001;28;20707;-78
2022/09/25 13:16:56;;;;;;;1.08;1.08;;;35.00;38.40;;;;;;4954517;28;20317;-77
2022/09/25 13:19:27;;;;;;;1.20;1.20;;;34.90;39.40;;;;;;4995332;28;20342;-76
2022/09/25 13:22:05;;;;;;;1.00;1.00;;;34.70;39.30;;;;;;4997967;28;20192;-79
2022/09/25 13:24:57;;;;;;;1.30;0.80;;;34.70;38.70;;;;;;5001144;28;20184;-76
2022/09/25 13:27:24;;;;;;;1.15;1.15;;;34.70;39.30;;;;;;5001302;28;20706;-75
2022/09/25 13:29:59;;;;;;;1.27;1.17;;;34.60;39.80;;;;;;5001914;28;20188;-76
2022/09/25 13:32:33;;;;;;;1.52;1.27;;;34.20;38.20;;;;;;5032815;28;20708;-76
2022/09/25 13:35:05;;;;;;;1.55;1.40;;;34.10;40.10;;;;;;5051382;28;20183;-74
2022/09/25 13:37:34;;;;;;;1.30;1.30;;;34.20;41.10;;;;;;5051561;28;20183;-75
2022/09/25 13:42:53;;;;;;;1.45;1.20;;;34.20;40.30;;;;;;5055968;28;20461;-76
2022/09/25 13:45:33;;;;;;;1.10;1.10;;;34.50;38.60;;;;;;5051541;28;20244;-77